sensor_id;sensor_type;location;lat;lon;timestamp;P1;durP1;ratioP1;P2;durP2;ratioP2
11827;SDS011;5971;49.646;8.568;2023-02-15T00:01:09;7.25;;;3.25;;
11827;SDS011;5971;49.646;8.568;2023-02-15T00:04:17;9.13;;;4.35;;
11827;SDS011;5971;49.646;8.568;2023-02-15T00:07:19;8.15;;;4.03;;
11827;SDS011;5971;49.646;8.568;2023-02-15T00:10:20;6.43;;;3.33;;
11827;SDS011;5971;49.646;8.568;2023-02-15T00:13:21;4.55;;;3.10;;
11827;SDS011;5971;49.646;8.568;2023-02-15T00:16:23;11.52;;;4.53;;
11827;SDS011;5971;49.646;8.568;2023-02-15T00:19:24;9.23;;;5.05;;
11827;SDS011;5971;49.646;8.568;2023-02-15T00:22:25;11.48;;;5.72;;
11827;SDS011;5971;49.646;8.568;2023-02-15T00:25:27;11.48;;;4.93;;
11827;SDS011;5971;49.646;8.568;2023-02-15T00:28:28;15.60;;;5.05;;
11827;SDS011;5971;49.646;8.568;2023-02-15T00:31:31;8.63;;;4.95;;
11827;SDS011;5971;49.646;8.568;2023-02-15T00:34:32;8.95;;;4.75;;
11827;SDS011;5971;49.646;8.568;2023-02-15T00:37:34;10.73;;;6.00;;
11827;SDS011;5971;49.646;8.568;2023-02-15T00:40:35;12.00;;;4.15;;
11827;SDS011;5971;49.646;8.568;2023-02-15T00:43:36;12.55;;;4.25;;
11827;SDS011;5971;49.646;8.568;2023-02-15T00:46:38;8.30;;;5.28;;
11827;SDS011;5971;49.646;8.568;2023-02-15T00:49:39;8.40;;;3.75;;
11827;SDS011;5971;49.646;8.568;2023-02-15T00:52:41;12.23;;;4.85;;
11827;SDS011;5971;49.646;8.568;2023-02-15T00:55:42;8.77;;;3.88;;
11827;SDS011;5971;49.646;8.568;2023-02-15T00:58:43;7.03;;;4.13;;
11827;SDS011;5971;49.646;8.568;2023-02-15T01:01:45;10.13;;;4.05;;
11827;SDS011;5971;49.646;8.568;2023-02-15T01:04:46;9.82;;;4.70;;
11827;SDS011;5971;49.646;8.568;2023-02-15T01:07:47;8.18;;;4.32;;
11827;SDS011;5971;49.646;8.568;2023-02-15T01:10:49;10.85;;;4.45;;
11827;SDS011;5971;49.646;8.568;2023-02-15T01:13:52;9.77;;;4.03;;
11827;SDS011;5971;49.646;8.568;2023-02-15T01:16:53;11.05;;;4.78;;
11827;SDS011;5971;49.646;8.568;2023-02-15T01:19:54;18.75;;;5.50;;
11827;SDS011;5971;49.646;8.568;2023-02-15T01:22:56;12.38;;;5.53;;
11827;SDS011;5971;49.646;8.568;2023-02-15T01:26:01;12.52;;;4.97;;
11827;SDS011;5971;49.646;8.568;2023-02-15T01:32:04;10.68;;;4.47;;
11827;SDS011;5971;49.646;8.568;2023-02-15T01:35:05;6.72;;;3.88;;
11827;SDS011;5971;49.646;8.568;2023-02-15T01:38:07;8.98;;;5.68;;
11827;SDS011;5971;49.646;8.568;2023-02-15T01:41:08;13.98;;;5.93;;
11827;SDS011;5971;49.646;8.568;2023-02-15T01:47:45;7.82;;;4.80;;
11827;SDS011;5971;49.646;8.568;2023-02-15T01:50:52;11.50;;;4.90;;
11827;SDS011;5971;49.646;8.568;2023-02-15T01:54:29;9.45;;;4.97;;
11827;SDS011;5971;49.646;8.568;2023-02-15T01:57:22;12.43;;;4.63;;
11827;SDS011;5971;49.646;8.568;2023-02-15T02:00:24;13.80;;;4.70;;
11827;SDS011;5971;49.646;8.568;2023-02-15T02:06:33;7.28;;;3.42;;
11827;SDS011;5971;49.646;8.568;2023-02-15T02:09:36;6.38;;;3.88;;
11827;SDS011;5971;49.646;8.568;2023-02-15T02:12:38;10.65;;;4.32;;
11827;SDS011;5971;49.646;8.568;2023-02-15T02:15:47;8.32;;;3.78;;
11827;SDS011;5971;49.646;8.568;2023-02-15T02:18:54;9.60;;;4.25;;
11827;SDS011;5971;49.646;8.568;2023-02-15T02:22:07;8.15;;;4.60;;
11827;SDS011;5971;49.646;8.568;2023-02-15T02:34:31;8.48;;;4.45;;
11827;SDS011;5971;49.646;8.568;2023-02-15T02:37:45;10.38;;;4.32;;
11827;SDS011;5971;49.646;8.568;2023-02-15T02:46:58;11.48;;;5.63;;
11827;SDS011;5971;49.646;8.568;2023-02-15T02:50:04;10.32;;;4.57;;
11827;SDS011;5971;49.646;8.568;2023-02-15T02:53:06;6.30;;;4.05;;
11827;SDS011;5971;49.646;8.568;2023-02-15T02:56:42;8.95;;;4.03;;
11827;SDS011;5971;49.646;8.568;2023-02-15T02:59:39;11.65;;;4.78;;
11827;SDS011;5971;49.646;8.568;2023-02-15T03:02:43;7.82;;;3.80;;
11827;SDS011;5971;49.646;8.568;2023-02-15T03:05:46;8.73;;;3.78;;
11827;SDS011;5971;49.646;8.568;2023-02-15T03:08:51;7.95;;;3.40;;
11827;SDS011;5971;49.646;8.568;2023-02-15T03:11:55;10.30;;;4.50;;
11827;SDS011;5971;49.646;8.568;2023-02-15T03:18:04;10.00;;;4.68;;
11827;SDS011;5971;49.646;8.568;2023-02-15T03:21:05;6.65;;;3.38;;
11827;SDS011;5971;49.646;8.568;2023-02-15T03:24:12;10.45;;;4.15;;
11827;SDS011;5971;49.646;8.568;2023-02-15T03:27:17;10.40;;;4.43;;
11827;SDS011;5971;49.646;8.568;2023-02-15T03:30:21;7.45;;;4.35;;
11827;SDS011;5971;49.646;8.568;2023-02-15T03:33:24;8.30;;;3.65;;
11827;SDS011;5971;49.646;8.568;2023-02-15T03:36:33;9.20;;;3.85;;
11827;SDS011;5971;49.646;8.568;2023-02-15T03:42:38;7.03;;;4.32;;
11827;SDS011;5971;49.646;8.568;2023-02-15T03:45:40;22.20;;;7.32;;
11827;SDS011;5971;49.646;8.568;2023-02-15T03:48:57;20.45;;;9.57;;
11827;SDS011;5971;49.646;8.568;2023-02-15T03:51:59;9.63;;;6.68;;
11827;SDS011;5971;49.646;8.568;2023-02-15T03:55:01;10.85;;;5.97;;
11827;SDS011;5971;49.646;8.568;2023-02-15T03:58:03;12.25;;;5.95;;
11827;SDS011;5971;49.646;8.568;2023-02-15T04:04:59;10.50;;;5.05;;
11827;SDS011;5971;49.646;8.568;2023-02-15T04:08:01;9.45;;;4.32;;
11827;SDS011;5971;49.646;8.568;2023-02-15T04:11:02;11.48;;;3.97;;
11827;SDS011;5971;49.646;8.568;2023-02-15T04:14:03;6.63;;;3.22;;
11827;SDS011;5971;49.646;8.568;2023-02-15T04:17:25;9.23;;;4.60;;
11827;SDS011;5971;49.646;8.568;2023-02-15T04:20:26;8.38;;;4.47;;
11827;SDS011;5971;49.646;8.568;2023-02-15T04:23:46;7.50;;;3.50;;
11827;SDS011;5971;49.646;8.568;2023-02-15T04:27:05;7.03;;;4.53;;
11827;SDS011;5971;49.646;8.568;2023-02-15T04:30:07;9.70;;;4.75;;
11827;SDS011;5971;49.646;8.568;2023-02-15T04:33:08;7.30;;;4.07;;
11827;SDS011;5971;49.646;8.568;2023-02-15T04:36:10;8.05;;;4.53;;
11827;SDS011;5971;49.646;8.568;2023-02-15T04:39:14;8.13;;;5.03;;
11827;SDS011;5971;49.646;8.568;2023-02-15T04:42:16;7.38;;;3.60;;
11827;SDS011;5971;49.646;8.568;2023-02-15T04:45:17;8.23;;;4.85;;
11827;SDS011;5971;49.646;8.568;2023-02-15T04:48:19;7.15;;;4.03;;
11827;SDS011;5971;49.646;8.568;2023-02-15T04:51:20;10.10;;;5.03;;
11827;SDS011;5971;49.646;8.568;2023-02-15T04:54:21;8.68;;;3.78;;
11827;SDS011;5971;49.646;8.568;2023-02-15T04:57:23;6.82;;;3.63;;
11827;SDS011;5971;49.646;8.568;2023-02-15T05:00:24;12.68;;;5.45;;
11827;SDS011;5971;49.646;8.568;2023-02-15T05:03:25;10.38;;;3.75;;
11827;SDS011;5971;49.646;8.568;2023-02-15T05:06:27;8.15;;;4.18;;
11827;SDS011;5971;49.646;8.568;2023-02-15T05:09:28;9.07;;;4.75;;
11827;SDS011;5971;49.646;8.568;2023-02-15T05:12:29;10.23;;;4.90;;
11827;SDS011;5971;49.646;8.568;2023-02-15T05:15:31;5.60;;;3.92;;
11827;SDS011;5971;49.646;8.568;2023-02-15T05:18:32;7.97;;;4.55;;
11827;SDS011;5971;49.646;8.568;2023-02-15T05:21:33;15.45;;;5.93;;
11827;SDS011;5971;49.646;8.568;2023-02-15T05:24:35;10.00;;;4.15;;
11827;SDS011;5971;49.646;8.568;2023-02-15T05:27:55;6.68;;;4.03;;
11827;SDS011;5971;49.646;8.568;2023-02-15T05:31:16;6.20;;;3.80;;
11827;SDS011;5971;49.646;8.568;2023-02-15T05:34:18;5.47;;;3.53;;
11827;SDS011;5971;49.646;8.568;2023-02-15T05:37:19;9.98;;;4.22;;
11827;SDS011;5971;49.646;8.568;2023-02-15T05:40:21;6.35;;;4.03;;
11827;SDS011;5971;49.646;8.568;2023-02-15T05:43:22;12.50;;;4.22;;
11827;SDS011;5971;49.646;8.568;2023-02-15T05:46:23;5.93;;;4.70;;
11827;SDS011;5971;49.646;8.568;2023-02-15T05:49:25;10.63;;;5.40;;
11827;SDS011;5971;49.646;8.568;2023-02-15T05:52:26;8.38;;;4.82;;
11827;SDS011;5971;49.646;8.568;2023-02-15T05:55:27;11.25;;;4.65;;
11827;SDS011;5971;49.646;8.568;2023-02-15T05:58:30;12.85;;;6.07;;
11827;SDS011;5971;49.646;8.568;2023-02-15T06:01:31;13.05;;;6.30;;
11827;SDS011;5971;49.646;8.568;2023-02-15T06:04:33;9.50;;;5.72;;
11827;SDS011;5971;49.646;8.568;2023-02-15T06:07:34;14.45;;;5.22;;
11827;SDS011;5971;49.646;8.568;2023-02-15T06:10:35;13.15;;;5.40;;
11827;SDS011;5971;49.646;8.568;2023-02-15T06:13:37;8.10;;;4.93;;
11827;SDS011;5971;49.646;8.568;2023-02-15T06:16:39;9.90;;;5.25;;
11827;SDS011;5971;49.646;8.568;2023-02-15T06:19:40;19.58;;;4.65;;
11827;SDS011;5971;49.646;8.568;2023-02-15T06:22:41;11.77;;;6.43;;
11827;SDS011;5971;49.646;8.568;2023-02-15T06:25:44;10.60;;;5.38;;
11827;SDS011;5971;49.646;8.568;2023-02-15T06:28:45;9.82;;;4.63;;
11827;SDS011;5971;49.646;8.568;2023-02-15T06:31:46;12.38;;;5.60;;
11827;SDS011;5971;49.646;8.568;2023-02-15T06:34:48;10.43;;;5.22;;
11827;SDS011;5971;49.646;8.568;2023-02-15T06:37:49;11.38;;;5.55;;
11827;SDS011;5971;49.646;8.568;2023-02-15T06:40:50;9.95;;;4.90;;
11827;SDS011;5971;49.646;8.568;2023-02-15T06:43:52;7.82;;;4.55;;
11827;SDS011;5971;49.646;8.568;2023-02-15T06:46:53;13.93;;;5.20;;
11827;SDS011;5971;49.646;8.568;2023-02-15T06:49:54;11.95;;;5.65;;
11827;SDS011;5971;49.646;8.568;2023-02-15T06:52:56;9.35;;;3.80;;
11827;SDS011;5971;49.646;8.568;2023-02-15T06:56:05;9.00;;;4.78;;
11827;SDS011;5971;49.646;8.568;2023-02-15T06:59:07;12.65;;;5.30;;
11827;SDS011;5971;49.646;8.568;2023-02-15T07:02:10;12.50;;;5.10;;
11827;SDS011;5971;49.646;8.568;2023-02-15T07:05:12;12.52;;;5.20;;
11827;SDS011;5971;49.646;8.568;2023-02-15T07:08:13;9.20;;;4.30;;
11827;SDS011;5971;49.646;8.568;2023-02-15T07:11:14;11.35;;;4.25;;
11827;SDS011;5971;49.646;8.568;2023-02-15T07:14:35;13.15;;;5.43;;
11827;SDS011;5971;49.646;8.568;2023-02-15T07:17:36;7.47;;;4.32;;
11827;SDS011;5971;49.646;8.568;2023-02-15T07:20:38;11.50;;;6.00;;
11827;SDS011;5971;49.646;8.568;2023-02-15T07:23:40;11.45;;;4.95;;
11827;SDS011;5971;49.646;8.568;2023-02-15T07:26:41;7.55;;;3.55;;
11827;SDS011;5971;49.646;8.568;2023-02-15T07:29:42;11.00;;;4.82;;
11827;SDS011;5971;49.646;8.568;2023-02-15T07:32:44;9.23;;;4.63;;
11827;SDS011;5971;49.646;8.568;2023-02-15T07:36:14;9.05;;;4.18;;
11827;SDS011;5971;49.646;8.568;2023-02-15T07:39:16;13.02;;;6.50;;
11827;SDS011;5971;49.646;8.568;2023-02-15T07:42:17;8.98;;;4.57;;
11827;SDS011;5971;49.646;8.568;2023-02-15T07:45:20;11.18;;;4.10;;
11827;SDS011;5971;49.646;8.568;2023-02-15T07:48:22;11.70;;;4.45;;
11827;SDS011;5971;49.646;8.568;2023-02-15T07:51:25;8.43;;;4.35;;
11827;SDS011;5971;49.646;8.568;2023-02-15T07:54:26;12.80;;;5.15;;
11827;SDS011;5971;49.646;8.568;2023-02-15T07:57:28;6.78;;;3.97;;
11827;SDS011;5971;49.646;8.568;2023-02-15T08:00:29;10.85;;;5.45;;
11827;SDS011;5971;49.646;8.568;2023-02-15T08:03:31;12.65;;;5.43;;
11827;SDS011;5971;49.646;8.568;2023-02-15T08:06:33;12.68;;;4.82;;
11827;SDS011;5971;49.646;8.568;2023-02-15T08:09:35;11.18;;;4.60;;
11827;SDS011;5971;49.646;8.568;2023-02-15T08:12:36;13.30;;;5.43;;
11827;SDS011;5971;49.646;8.568;2023-02-15T08:15:37;8.80;;;4.32;;
11827;SDS011;5971;49.646;8.568;2023-02-15T08:18:39;15.23;;;5.35;;
11827;SDS011;5971;49.646;8.568;2023-02-15T08:21:41;10.75;;;4.53;;
11827;SDS011;5971;49.646;8.568;2023-02-15T08:24:42;8.05;;;3.85;;
11827;SDS011;5971;49.646;8.568;2023-02-15T08:27:44;10.23;;;5.63;;
11827;SDS011;5971;49.646;8.568;2023-02-15T08:30:45;9.57;;;4.75;;
11827;SDS011;5971;49.646;8.568;2023-02-15T08:33:47;10.75;;;4.68;;
11827;SDS011;5971;49.646;8.568;2023-02-15T08:36:49;9.20;;;4.63;;
11827;SDS011;5971;49.646;8.568;2023-02-15T08:39:50;10.10;;;5.60;;
11827;SDS011;5971;49.646;8.568;2023-02-15T08:42:52;10.23;;;4.50;;
11827;SDS011;5971;49.646;8.568;2023-02-15T08:45:53;8.20;;;5.35;;
11827;SDS011;5971;49.646;8.568;2023-02-15T08:48:55;11.60;;;5.13;;
11827;SDS011;5971;49.646;8.568;2023-02-15T08:51:57;10.50;;;4.85;;
11827;SDS011;5971;49.646;8.568;2023-02-15T08:54:58;14.50;;;5.60;;
11827;SDS011;5971;49.646;8.568;2023-02-15T08:57:59;10.93;;;5.53;;
11827;SDS011;5971;49.646;8.568;2023-02-15T09:01:01;11.13;;;5.43;;
11827;SDS011;5971;49.646;8.568;2023-02-15T09:04:06;12.98;;;4.97;;
11827;SDS011;5971;49.646;8.568;2023-02-15T09:07:09;10.88;;;4.60;;
11827;SDS011;5971;49.646;8.568;2023-02-15T09:10:11;19.08;;;6.15;;
11827;SDS011;5971;49.646;8.568;2023-02-15T09:13:12;10.55;;;5.05;;
11827;SDS011;5971;49.646;8.568;2023-02-15T09:16:14;5.95;;;3.20;;
11827;SDS011;5971;49.646;8.568;2023-02-15T09:19:18;9.90;;;4.93;;
11827;SDS011;5971;49.646;8.568;2023-02-15T09:22:19;17.90;;;4.63;;
11827;SDS011;5971;49.646;8.568;2023-02-15T09:25:21;11.27;;;4.57;;
11827;SDS011;5971;49.646;8.568;2023-02-15T09:28:22;11.25;;;5.00;;
11827;SDS011;5971;49.646;8.568;2023-02-15T09:31:24;17.15;;;5.53;;
11827;SDS011;5971;49.646;8.568;2023-02-15T09:34:26;16.83;;;5.65;;
11827;SDS011;5971;49.646;8.568;2023-02-15T09:37:27;9.85;;;5.18;;
11827;SDS011;5971;49.646;8.568;2023-02-15T09:40:31;10.15;;;4.43;;
11827;SDS011;5971;49.646;8.568;2023-02-15T09:50:06;11.55;;;6.10;;
11827;SDS011;5971;49.646;8.568;2023-02-15T09:56:29;12.88;;;5.13;;
11827;SDS011;5971;49.646;8.568;2023-02-15T09:59:48;18.33;;;6.72;;
11827;SDS011;5971;49.646;8.568;2023-02-15T10:06:32;11.40;;;5.47;;
11827;SDS011;5971;49.646;8.568;2023-02-15T10:12:59;16.30;;;7.28;;
11827;SDS011;5971;49.646;8.568;2023-02-15T10:19:16;13.27;;;5.90;;
11827;SDS011;5971;49.646;8.568;2023-02-15T10:22:26;13.20;;;6.15;;
11827;SDS011;5971;49.646;8.568;2023-02-15T10:28:56;10.80;;;4.80;;
11827;SDS011;5971;49.646;8.568;2023-02-15T10:38:14;12.07;;;6.82;;
11827;SDS011;5971;49.646;8.568;2023-02-15T10:44:42;8.18;;;4.53;;
11827;SDS011;5971;49.646;8.568;2023-02-15T10:50:57;20.08;;;7.45;;
11827;SDS011;5971;49.646;8.568;2023-02-15T10:54:03;16.02;;;6.55;;
11827;SDS011;5971;49.646;8.568;2023-02-15T10:57:19;8.95;;;4.53;;
11827;SDS011;5971;49.646;8.568;2023-02-15T11:00:44;14.93;;;6.15;;
11827;SDS011;5971;49.646;8.568;2023-02-15T11:04:05;16.52;;;5.30;;
11827;SDS011;5971;49.646;8.568;2023-02-15T11:07:33;11.23;;;5.22;;
11827;SDS011;5971;49.646;8.568;2023-02-15T11:10:39;9.93;;;4.57;;
11827;SDS011;5971;49.646;8.568;2023-02-15T11:13:45;13.82;;;5.97;;
11827;SDS011;5971;49.646;8.568;2023-02-15T11:16:52;16.35;;;6.35;;
11827;SDS011;5971;49.646;8.568;2023-02-15T11:20:00;11.63;;;6.05;;
11827;SDS011;5971;49.646;8.568;2023-02-15T11:23:07;12.75;;;5.00;;
11827;SDS011;5971;49.646;8.568;2023-02-15T11:26:56;14.38;;;7.20;;
11827;SDS011;5971;49.646;8.568;2023-02-15T11:32:39;14.93;;;5.95;;
11827;SDS011;5971;49.646;8.568;2023-02-15T11:38:50;15.10;;;7.07;;
11827;SDS011;5971;49.646;8.568;2023-02-15T11:41:55;11.55;;;4.97;;
11827;SDS011;5971;49.646;8.568;2023-02-15T11:48:28;10.93;;;5.32;;
11827;SDS011;5971;49.646;8.568;2023-02-15T11:51:30;15.88;;;5.78;;
11827;SDS011;5971;49.646;8.568;2023-02-15T11:54:35;14.57;;;7.00;;
11827;SDS011;5971;49.646;8.568;2023-02-15T11:57:38;14.60;;;6.45;;
11827;SDS011;5971;49.646;8.568;2023-02-15T12:00:42;11.00;;;6.07;;
11827;SDS011;5971;49.646;8.568;2023-02-15T12:03:46;12.55;;;5.03;;
11827;SDS011;5971;49.646;8.568;2023-02-15T12:10:24;12.90;;;4.32;;
11827;SDS011;5971;49.646;8.568;2023-02-15T12:13:26;18.02;;;8.20;;
11827;SDS011;5971;49.646;8.568;2023-02-15T12:16:28;12.85;;;4.72;;
11827;SDS011;5971;49.646;8.568;2023-02-15T12:19:31;16.55;;;6.70;;
11827;SDS011;5971;49.646;8.568;2023-02-15T12:22:34;14.77;;;6.75;;
11827;SDS011;5971;49.646;8.568;2023-02-15T12:25:39;15.25;;;6.30;;
11827;SDS011;5971;49.646;8.568;2023-02-15T12:28:42;13.57;;;5.70;;
11827;SDS011;5971;49.646;8.568;2023-02-15T12:31:46;13.95;;;6.78;;
11827;SDS011;5971;49.646;8.568;2023-02-15T12:34:48;14.82;;;6.15;;
11827;SDS011;5971;49.646;8.568;2023-02-15T12:37:55;14.95;;;6.50;;
11827;SDS011;5971;49.646;8.568;2023-02-15T12:40:58;17.73;;;7.72;;
11827;SDS011;5971;49.646;8.568;2023-02-15T12:44:04;15.95;;;7.45;;
11827;SDS011;5971;49.646;8.568;2023-02-15T12:47:18;19.90;;;8.25;;
11827;SDS011;5971;49.646;8.568;2023-02-15T12:50:23;16.17;;;7.40;;
11827;SDS011;5971;49.646;8.568;2023-02-15T12:53:35;19.15;;;8.35;;
11827;SDS011;5971;49.646;8.568;2023-02-15T12:56:37;28.35;;;8.48;;
11827;SDS011;5971;49.646;8.568;2023-02-15T12:59:47;16.88;;;8.13;;
11827;SDS011;5971;49.646;8.568;2023-02-15T13:02:50;21.90;;;9.13;;
11827;SDS011;5971;49.646;8.568;2023-02-15T13:05:53;20.45;;;9.15;;
11827;SDS011;5971;49.646;8.568;2023-02-15T13:08:59;18.98;;;10.23;;
11827;SDS011;5971;49.646;8.568;2023-02-15T13:12:22;13.48;;;6.93;;
11827;SDS011;5971;49.646;8.568;2023-02-15T13:15:29;11.00;;;5.53;;
11827;SDS011;5971;49.646;8.568;2023-02-15T13:18:44;13.40;;;6.68;;
11827;SDS011;5971;49.646;8.568;2023-02-15T13:21:50;20.55;;;9.43;;
11827;SDS011;5971;49.646;8.568;2023-02-15T13:24:56;18.83;;;8.05;;
11827;SDS011;5971;49.646;8.568;2023-02-15T13:28:00;15.73;;;7.32;;
11827;SDS011;5971;49.646;8.568;2023-02-15T13:31:02;18.35;;;7.50;;
11827;SDS011;5971;49.646;8.568;2023-02-15T13:34:18;19.67;;;9.35;;
11827;SDS011;5971;49.646;8.568;2023-02-15T13:40:22;18.60;;;8.98;;
11827;SDS011;5971;49.646;8.568;2023-02-15T13:43:28;15.25;;;7.93;;
11827;SDS011;5971;49.646;8.568;2023-02-15T13:46:45;21.40;;;8.15;;
11827;SDS011;5971;49.646;8.568;2023-02-15T13:56:23;19.52;;;8.27;;
11827;SDS011;5971;49.646;8.568;2023-02-15T14:03:12;15.25;;;7.65;;
11827;SDS011;5971;49.646;8.568;2023-02-15T14:06:24;22.00;;;8.77;;
11827;SDS011;5971;49.646;8.568;2023-02-15T14:12:38;22.02;;;8.63;;
11827;SDS011;5971;49.646;8.568;2023-02-15T14:22:36;22.45;;;9.15;;
11827;SDS011;5971;49.646;8.568;2023-02-15T14:25:41;21.35;;;9.23;;
11827;SDS011;5971;49.646;8.568;2023-02-15T14:31:47;18.02;;;8.18;;
11827;SDS011;5971;49.646;8.568;2023-02-15T14:34:52;14.52;;;8.38;;
11827;SDS011;5971;49.646;8.568;2023-02-15T14:41:10;20.88;;;9.63;;
11827;SDS011;5971;49.646;8.568;2023-02-15T14:44:13;17.80;;;8.23;;
11827;SDS011;5971;49.646;8.568;2023-02-15T14:47:22;20.55;;;9.55;;
11827;SDS011;5971;49.646;8.568;2023-02-15T14:56:32;25.67;;;13.05;;
11827;SDS011;5971;49.646;8.568;2023-02-15T15:02:48;21.05;;;9.25;;
11827;SDS011;5971;49.646;8.568;2023-02-15T15:05:51;20.15;;;9.45;;
11827;SDS011;5971;49.646;8.568;2023-02-15T15:08:55;25.85;;;10.55;;
11827;SDS011;5971;49.646;8.568;2023-02-15T15:12:36;21.83;;;10.13;;
11827;SDS011;5971;49.646;8.568;2023-02-15T15:15:44;16.85;;;7.68;;
11827;SDS011;5971;49.646;8.568;2023-02-15T15:18:47;18.40;;;8.93;;
11827;SDS011;5971;49.646;8.568;2023-02-15T15:24:56;19.92;;;9.23;;
11827;SDS011;5971;49.646;8.568;2023-02-15T15:27:58;21.50;;;9.93;;
11827;SDS011;5971;49.646;8.568;2023-02-15T15:31:18;21.90;;;10.65;;
11827;SDS011;5971;49.646;8.568;2023-02-15T15:34:36;26.27;;;9.30;;
11827;SDS011;5971;49.646;8.568;2023-02-15T15:37:46;16.50;;;9.32;;
11827;SDS011;5971;49.646;8.568;2023-02-15T15:40:55;15.63;;;7.82;;
11827;SDS011;5971;49.646;8.568;2023-02-15T15:50:12;21.77;;;10.38;;
11827;SDS011;5971;49.646;8.568;2023-02-15T15:53:18;26.98;;;9.27;;
11827;SDS011;5971;49.646;8.568;2023-02-15T15:56:22;22.63;;;8.55;;
11827;SDS011;5971;49.646;8.568;2023-02-15T15:59:34;26.23;;;8.77;;
11827;SDS011;5971;49.646;8.568;2023-02-15T16:02:36;19.17;;;9.07;;
11827;SDS011;5971;49.646;8.568;2023-02-15T16:05:50;19.25;;;9.13;;
11827;SDS011;5971;49.646;8.568;2023-02-15T16:08:56;14.35;;;7.20;;
11827;SDS011;5971;49.646;8.568;2023-02-15T16:11:57;21.88;;;10.48;;
11827;SDS011;5971;49.646;8.568;2023-02-15T16:15:02;19.80;;;7.88;;
11827;SDS011;5971;49.646;8.568;2023-02-15T16:18:05;22.85;;;9.68;;
11827;SDS011;5971;49.646;8.568;2023-02-15T16:21:12;25.17;;;9.38;;
11827;SDS011;5971;49.646;8.568;2023-02-15T16:30:26;20.42;;;9.57;;
11827;SDS011;5971;49.646;8.568;2023-02-15T16:33:34;27.10;;;9.88;;
11827;SDS011;5971;49.646;8.568;2023-02-15T16:36:36;17.70;;;7.10;;
11827;SDS011;5971;49.646;8.568;2023-02-15T16:39:40;18.30;;;8.25;;
11827;SDS011;5971;49.646;8.568;2023-02-15T16:42:41;16.17;;;8.20;;
11827;SDS011;5971;49.646;8.568;2023-02-15T16:45:43;15.90;;;7.65;;
11827;SDS011;5971;49.646;8.568;2023-02-15T16:48:45;22.08;;;8.63;;
11827;SDS011;5971;49.646;8.568;2023-02-15T16:51:54;20.35;;;9.50;;
11827;SDS011;5971;49.646;8.568;2023-02-15T16:54:58;15.20;;;7.57;;
11827;SDS011;5971;49.646;8.568;2023-02-15T16:58:00;13.95;;;7.40;;
11827;SDS011;5971;49.646;8.568;2023-02-15T17:01:06;14.38;;;7.72;;
11827;SDS011;5971;49.646;8.568;2023-02-15T17:07:21;18.73;;;9.02;;
11827;SDS011;5971;49.646;8.568;2023-02-15T17:10:27;15.02;;;8.52;;
11827;SDS011;5971;49.646;8.568;2023-02-15T17:13:29;24.13;;;10.20;;
11827;SDS011;5971;49.646;8.568;2023-02-15T17:16:47;16.85;;;9.45;;
11827;SDS011;5971;49.646;8.568;2023-02-15T17:19:53;19.33;;;8.48;;
11827;SDS011;5971;49.646;8.568;2023-02-15T17:22:55;14.60;;;7.95;;
11827;SDS011;5971;49.646;8.568;2023-02-15T17:25:57;16.10;;;7.20;;
11827;SDS011;5971;49.646;8.568;2023-02-15T17:29:09;26.33;;;9.18;;
11827;SDS011;5971;49.646;8.568;2023-02-15T17:32:15;18.48;;;8.82;;
11827;SDS011;5971;49.646;8.568;2023-02-15T17:35:21;20.23;;;9.77;;
11827;SDS011;5971;49.646;8.568;2023-02-15T17:38:25;18.75;;;8.00;;
11827;SDS011;5971;49.646;8.568;2023-02-15T17:41:27;19.60;;;8.85;;
11827;SDS011;5971;49.646;8.568;2023-02-15T17:44:29;17.55;;;8.95;;
11827;SDS011;5971;49.646;8.568;2023-02-15T17:47:30;14.90;;;8.88;;
11827;SDS011;5971;49.646;8.568;2023-02-15T17:50:32;20.27;;;8.35;;
11827;SDS011;5971;49.646;8.568;2023-02-15T17:53:34;19.13;;;7.95;;
11827;SDS011;5971;49.646;8.568;2023-02-15T17:56:36;17.02;;;7.97;;
11827;SDS011;5971;49.646;8.568;2023-02-15T17:59:37;15.00;;;8.27;;
11827;SDS011;5971;49.646;8.568;2023-02-15T18:02:57;17.52;;;8.73;;
11827;SDS011;5971;49.646;8.568;2023-02-15T18:06:17;18.50;;;8.35;;
11827;SDS011;5971;49.646;8.568;2023-02-15T18:09:37;26.25;;;7.43;;
11827;SDS011;5971;49.646;8.568;2023-02-15T18:12:57;20.70;;;8.15;;
11827;SDS011;5971;49.646;8.568;2023-02-15T18:15:58;20.48;;;7.25;;
11827;SDS011;5971;49.646;8.568;2023-02-15T18:19:00;16.98;;;7.00;;
11827;SDS011;5971;49.646;8.568;2023-02-15T18:22:01;22.65;;;8.50;;
11827;SDS011;5971;49.646;8.568;2023-02-15T18:25:03;19.00;;;9.30;;
11827;SDS011;5971;49.646;8.568;2023-02-15T18:28:04;20.52;;;9.65;;
11827;SDS011;5971;49.646;8.568;2023-02-15T18:31:06;30.55;;;11.25;;
11827;SDS011;5971;49.646;8.568;2023-02-15T18:34:11;26.58;;;12.00;;
11827;SDS011;5971;49.646;8.568;2023-02-15T18:37:16;19.40;;;10.70;;
11827;SDS011;5971;49.646;8.568;2023-02-15T18:40:24;29.42;;;10.35;;
11827;SDS011;5971;49.646;8.568;2023-02-15T18:43:25;18.92;;;9.25;;
11827;SDS011;5971;49.646;8.568;2023-02-15T18:46:27;15.82;;;8.20;;
11827;SDS011;5971;49.646;8.568;2023-02-15T18:49:28;17.83;;;8.57;;
11827;SDS011;5971;49.646;8.568;2023-02-15T18:52:30;13.88;;;7.20;;
11827;SDS011;5971;49.646;8.568;2023-02-15T18:55:33;18.08;;;8.82;;
11827;SDS011;5971;49.646;8.568;2023-02-15T18:58:35;18.70;;;8.93;;
11827;SDS011;5971;49.646;8.568;2023-02-15T19:01:36;14.80;;;8.00;;
11827;SDS011;5971;49.646;8.568;2023-02-15T19:04:38;13.75;;;5.97;;
11827;SDS011;5971;49.646;8.568;2023-02-15T19:07:39;13.25;;;7.32;;
11827;SDS011;5971;49.646;8.568;2023-02-15T19:10:41;12.02;;;5.60;;
11827;SDS011;5971;49.646;8.568;2023-02-15T19:13:43;17.60;;;10.32;;
11827;SDS011;5971;49.646;8.568;2023-02-15T19:16:44;16.13;;;10.00;;
11827;SDS011;5971;49.646;8.568;2023-02-15T19:19:46;13.65;;;7.70;;
11827;SDS011;5971;49.646;8.568;2023-02-15T19:22:48;15.50;;;7.55;;
11827;SDS011;5971;49.646;8.568;2023-02-15T19:25:50;14.35;;;7.82;;
11827;SDS011;5971;49.646;8.568;2023-02-15T19:28:52;14.40;;;8.13;;
11827;SDS011;5971;49.646;8.568;2023-02-15T19:31:53;13.10;;;7.22;;
11827;SDS011;5971;49.646;8.568;2023-02-15T19:34:55;15.30;;;7.93;;
11827;SDS011;5971;49.646;8.568;2023-02-15T19:37:57;20.70;;;9.18;;
11827;SDS011;5971;49.646;8.568;2023-02-15T19:41:00;11.25;;;5.75;;
11827;SDS011;5971;49.646;8.568;2023-02-15T19:44:02;17.52;;;8.18;;
11827;SDS011;5971;49.646;8.568;2023-02-15T19:47:04;19.10;;;9.90;;
11827;SDS011;5971;49.646;8.568;2023-02-15T19:50:05;22.15;;;8.60;;
11827;SDS011;5971;49.646;8.568;2023-02-15T19:53:08;20.13;;;9.95;;
11827;SDS011;5971;49.646;8.568;2023-02-15T19:56:21;28.85;;;12.73;;
11827;SDS011;5971;49.646;8.568;2023-02-15T19:59:28;21.60;;;10.65;;
11827;SDS011;5971;49.646;8.568;2023-02-15T20:02:30;14.13;;;7.55;;
11827;SDS011;5971;49.646;8.568;2023-02-15T20:05:31;15.52;;;8.02;;
11827;SDS011;5971;49.646;8.568;2023-02-15T20:08:35;17.38;;;9.25;;
11827;SDS011;5971;49.646;8.568;2023-02-15T20:11:36;16.88;;;10.55;;
11827;SDS011;5971;49.646;8.568;2023-02-15T20:14:37;18.58;;;9.02;;
11827;SDS011;5971;49.646;8.568;2023-02-15T20:17:38;12.73;;;8.35;;
11827;SDS011;5971;49.646;8.568;2023-02-15T20:23:47;23.55;;;12.02;;
11827;SDS011;5971;49.646;8.568;2023-02-15T20:26:48;23.17;;;9.07;;
11827;SDS011;5971;49.646;8.568;2023-02-15T20:29:50;20.50;;;9.02;;
11827;SDS011;5971;49.646;8.568;2023-02-15T20:32:52;23.10;;;12.35;;
11827;SDS011;5971;49.646;8.568;2023-02-15T20:35:53;18.80;;;9.82;;
11827;SDS011;5971;49.646;8.568;2023-02-15T20:38:56;18.05;;;10.05;;
11827;SDS011;5971;49.646;8.568;2023-02-15T20:41:59;16.02;;;9.70;;
11827;SDS011;5971;49.646;8.568;2023-02-15T20:45:00;19.02;;;9.05;;
11827;SDS011;5971;49.646;8.568;2023-02-15T20:48:03;22.10;;;8.75;;
11827;SDS011;5971;49.646;8.568;2023-02-15T20:51:04;18.08;;;9.30;;
11827;SDS011;5971;49.646;8.568;2023-02-15T20:54:13;16.48;;;8.23;;
11827;SDS011;5971;49.646;8.568;2023-02-15T20:57:15;19.52;;;10.13;;
11827;SDS011;5971;49.646;8.568;2023-02-15T21:00:18;19.77;;;9.23;;